createdAt,value
2018-02-22T00:00:00.925Z,-3.20
2018-02-22T00:02:28.612Z,-3.20
2018-02-22T00:04:56.245Z,-3.30
2018-02-22T00:07:23.845Z,-3.30
2018-02-22T00:09:51.578Z,-3.30
2018-02-22T00:12:19.176Z,-3.30
2018-02-22T00:14:46.821Z,-3.40
2018-02-22T00:17:14.434Z,-3.50
2018-02-22T00:19:42.074Z,-3.60
2018-02-22T00:22:09.723Z,-3.60
2018-02-22T00:24:38.150Z,-3.40
2018-02-22T00:27:05.754Z,-3.40
2018-02-22T00:29:33.382Z,-3.40
2018-02-22T00:32:01.112Z,-3.40
2018-02-22T00:34:28.732Z,-3.40
2018-02-22T00:36:56.359Z,-3.30
2018-02-22T00:39:23.984Z,-3.30
2018-02-22T00:41:51.584Z,-3.30
2018-02-22T00:44:19.164Z,-3.30
2018-02-22T00:46:46.784Z,-3.40
2018-02-22T00:49:15.228Z,-3.20
2018-02-22T00:51:42.888Z,-3.20
2018-02-22T00:54:10.475Z,-3.20
2018-02-22T00:56:38.099Z,-3.10
2018-02-22T00:59:06.491Z,-2.80
2018-02-22T01:01:34.889Z,-2.70
2018-02-22T01:04:03.255Z,-2.60
2018-02-22T01:06:30.914Z,-2.60
2018-02-22T01:08:58.548Z,-2.50
2018-02-22T01:11:26.164Z,-2.50
2018-02-22T01:13:53.776Z,-2.50
2018-02-22T01:16:21.452Z,-2.60
2018-02-22T01:18:49.115Z,-2.60
2018-02-22T01:21:17.508Z,-2.60
2018-02-22T01:23:45.853Z,-2.60
2018-02-22T01:26:13.492Z,-2.60
2018-02-22T01:28:41.119Z,-2.60
2018-02-22T01:31:08.740Z,-2.50
2018-02-22T01:33:36.400Z,-2.50
2018-02-22T01:36:04.018Z,-2.50
2018-02-22T01:38:31.642Z,-2.50
2018-02-22T01:40:59.287Z,-2.50
2018-02-22T01:43:26.888Z,-2.50
2018-02-22T01:45:54.531Z,-2.50
2018-02-22T01:48:22.152Z,-2.40
2018-02-22T01:50:49.793Z,-2.30
2018-02-22T01:53:18.216Z,-2.30
2018-02-22T01:55:45.839Z,-2.30
2018-02-22T01:58:13.443Z,-2.30
2018-02-22T02:00:41.831Z,-2.30
2018-02-22T02:03:10.207Z,-2.40
2018-02-22T02:05:37.847Z,-2.40
2018-02-22T02:08:05.624Z,-2.40
2018-02-22T02:10:33.376Z,-2.40
2018-02-22T02:13:01.037Z,-2.30
2018-02-22T02:15:28.646Z,-2.30
2018-02-22T02:17:56.403Z,-2.40
2018-02-22T02:20:24.065Z,-2.40
2018-02-22T02:22:51.698Z,-2.40
2018-02-22T02:25:19.367Z,-2.40
2018-02-22T02:27:53.296Z,-2.40
2018-02-22T02:30:21.692Z,-2.30
2018-02-22T02:32:50.086Z,-2.30
2018-02-22T02:35:18.481Z,-2.20
2018-02-22T02:37:46.126Z,-2.20
2018-02-22T02:40:13.785Z,-2.20
2018-02-22T02:42:41.458Z,-2.20
2018-02-22T02:45:09.060Z,-2.20
2018-02-22T02:47:36.720Z,-2.20
2018-02-22T02:50:04.328Z,-2.10
2018-02-22T02:52:32.735Z,-2.10
2018-02-22T02:55:00.339Z,-2.10
2018-02-22T02:57:27.972Z,-2.00
2018-02-22T02:59:55.557Z,-2.00
2018-02-22T03:02:23.193Z,-2.00
2018-02-22T03:04:50.850Z,-2.00
2018-02-22T03:07:18.484Z,-2.10
2018-02-22T03:09:46.106Z,-2.10
2018-02-22T03:12:13.753Z,-2.10
2018-02-22T03:14:41.361Z,-2.10
2018-02-22T03:17:09.006Z,-2.00
2018-02-22T03:19:36.668Z,-2.10
2018-02-22T03:22:04.297Z,-2.10
2018-02-22T03:24:32.708Z,-2.00
2018-02-22T03:27:03.910Z,-2.00
2018-02-22T03:29:31.572Z,-2.00
2018-02-22T03:31:59.226Z,-2.10
2018-02-22T03:34:26.840Z,-2.10
2018-02-22T03:36:54.454Z,-2.10
2018-02-22T03:39:22.068Z,-2.00
2018-02-22T03:41:49.708Z,-2.10
2018-02-22T03:44:17.440Z,-2.00
2018-02-22T03:46:45.094Z,-2.10
2018-02-22T03:49:12.699Z,-2.10
2018-02-22T03:51:41.144Z,-2.20
2018-02-22T03:54:08.772Z,-2.10
2018-02-22T03:56:37.188Z,-2.20
2018-02-22T03:59:04.841Z,-2.20
2018-02-22T04:01:33.241Z,-2.10
2018-02-22T04:04:00.889Z,-2.20
2018-02-22T04:06:28.578Z,-2.10
2018-02-22T04:08:56.954Z,-2.20
2018-02-22T04:11:24.802Z,-2.20
2018-02-22T04:13:52.402Z,-2.20
2018-02-22T04:16:20.033Z,-2.10
2018-02-22T04:18:47.620Z,-2.20
2018-02-22T04:21:15.250Z,-2.20
2018-02-22T04:23:42.839Z,-2.20
2018-02-22T04:26:10.421Z,-2.20
2018-02-22T04:28:38.053Z,-2.20
2018-02-22T04:31:06.451Z,-2.20
2018-02-22T04:33:34.881Z,-2.20
2018-02-22T04:36:02.495Z,-2.20
2018-02-22T04:38:30.117Z,-2.20
2018-02-22T04:40:57.766Z,-2.20
2018-02-22T04:43:26.160Z,-2.20
2018-02-22T04:45:53.758Z,-2.20
2018-02-22T04:48:21.357Z,-2.20
2018-02-22T04:50:49.016Z,-2.20
2018-02-22T04:53:16.674Z,-2.20
2018-02-22T04:55:44.315Z,-2.20
2018-02-22T04:58:13.658Z,-2.10
2018-02-22T05:00:41.253Z,-2.20
2018-02-22T05:03:08.884Z,-2.20
2018-02-22T05:05:37.295Z,-2.20
2018-02-22T05:08:04.965Z,-2.20
2018-02-22T05:10:32.585Z,-2.20
2018-02-22T05:13:00.969Z,-2.20
2018-02-22T05:15:28.630Z,-2.20
2018-02-22T05:17:56.395Z,-2.30
2018-02-22T05:20:24.016Z,-2.30
2018-02-22T05:22:51.600Z,-2.30
2018-02-22T05:25:19.993Z,-2.30
2018-02-22T05:27:48.393Z,-2.30
2018-02-22T05:30:16.864Z,-2.30
2018-02-22T05:32:44.473Z,-2.30
2018-02-22T05:35:12.149Z,-2.30
2018-02-22T05:37:39.865Z,-2.30
2018-02-22T05:40:07.497Z,-2.30
2018-02-22T05:42:35.107Z,-2.30
2018-02-22T05:45:02.917Z,-2.30
2018-02-22T05:47:31.353Z,-2.30
2018-02-22T05:49:59.021Z,-2.30
2018-02-22T05:52:26.645Z,-2.30
2018-02-22T05:54:54.377Z,-2.30
2018-02-22T05:57:21.981Z,-2.30
2018-02-22T05:59:49.618Z,-2.30
2018-02-22T06:02:17.223Z,-2.30
2018-02-22T06:04:44.805Z,-2.20
2018-02-22T06:07:12.428Z,-2.30
2018-02-22T06:09:40.000Z,-2.30
2018-02-22T06:12:07.676Z,-2.20
2018-02-22T06:14:35.261Z,-2.30
2018-02-22T06:17:02.920Z,-2.30
2018-02-22T06:19:30.561Z,-2.30
2018-02-22T06:21:58.285Z,-2.30
2018-02-22T06:24:25.919Z,-2.30
2018-02-22T06:26:54.317Z,-2.30
2018-02-22T06:29:22.720Z,-2.30
2018-02-22T06:31:50.413Z,-2.30
2018-02-22T06:34:18.069Z,-2.30
2018-02-22T06:36:45.723Z,-2.50
2018-02-22T06:39:14.088Z,-2.60
2018-02-22T06:41:41.721Z,-2.60
2018-02-22T06:44:09.385Z,-2.60
2018-02-22T06:46:37.009Z,-2.60
2018-02-22T06:49:04.666Z,-2.50
2018-02-22T06:51:32.297Z,-2.60
2018-02-22T06:53:59.936Z,-2.50
2018-02-22T06:56:28.331Z,-2.50
2018-02-22T06:58:55.941Z,-2.60
2018-02-22T07:01:23.605Z,-2.50
2018-02-22T07:03:51.997Z,-2.30
2018-02-22T07:06:19.615Z,-2.40
2018-02-22T07:08:47.269Z,-2.20
2018-02-22T07:11:15.059Z,-2.20
2018-02-22T07:13:42.724Z,-2.30
2018-02-22T07:16:10.496Z,-2.20
2018-02-22T07:18:38.128Z,-2.10
2018-02-22T07:21:06.508Z,-2.10
2018-02-22T07:23:34.116Z,-2.10
2018-02-22T07:26:01.773Z,-2.20
2018-02-22T07:28:30.305Z,-2.00
2018-02-22T07:30:57.888Z,-2.00
2018-02-22T07:33:25.513Z,-2.10
2018-02-22T07:35:53.864Z,-1.90
2018-02-22T07:38:21.489Z,-2.00
2018-02-22T07:40:49.149Z,-1.90
2018-02-22T07:43:17.550Z,-1.80
2018-02-22T07:45:45.937Z,-1.70
2018-02-22T07:48:14.337Z,-1.60
2018-02-22T07:50:41.990Z,-1.60
2018-02-22T07:53:10.386Z,-1.60
2018-02-22T07:55:38.769Z,-1.50
2018-02-22T07:58:07.205Z,-1.30
2018-02-22T08:00:34.848Z,-1.40
2018-02-22T08:03:03.266Z,-1.30
2018-02-22T08:05:30.891Z,-1.30
2018-02-22T08:07:58.487Z,-1.30
2018-02-22T08:10:26.891Z,-1.20
2018-02-22T08:12:54.895Z,-1.20
2018-02-22T08:15:22.514Z,-1.20
2018-02-22T08:17:50.098Z,-1.00
2018-02-22T08:20:18.497Z,-0.80
2018-02-22T08:22:46.855Z,-0.70
2018-02-22T08:25:14.491Z,-0.70
2018-02-22T08:27:42.110Z,-0.80
2018-02-22T08:30:09.765Z,-0.70
2018-02-22T08:32:37.389Z,-0.60
2018-02-22T08:35:04.980Z,-0.60
2018-02-22T08:37:32.581Z,-0.50
2018-02-22T08:40:00.292Z,-0.60
2018-02-22T08:42:28.684Z,-0.80
2018-02-22T08:44:57.084Z,-0.70
2018-02-22T08:47:25.479Z,-0.70
2018-02-22T08:49:53.879Z,-0.60
2018-02-22T08:52:21.491Z,-0.60
2018-02-22T08:54:49.105Z,-0.80
2018-02-22T08:57:17.508Z,-0.50
2018-02-22T08:59:46.002Z,-0.40
2018-02-22T09:02:14.405Z,-0.50
2018-02-22T09:04:42.071Z,-0.60
2018-02-22T09:07:09.672Z,-0.60
2018-02-22T09:09:37.272Z,-0.40
2018-02-22T09:12:04.904Z,-0.60
2018-02-22T09:14:32.534Z,-0.60
2018-02-22T09:17:00.161Z,-0.50
2018-02-22T09:19:27.756Z,-0.10
2018-02-22T09:21:55.380Z,-0.10
2018-02-22T09:24:23.757Z,-0.30
2018-02-22T09:26:52.195Z,-0.30
2018-02-22T09:29:19.852Z,-0.30
2018-02-22T09:31:47.479Z,-0.30
2018-02-22T09:34:15.218Z,-0.20
2018-02-22T09:36:42.892Z,-0.10
2018-02-22T09:39:10.481Z,-0.30
2018-02-22T09:41:38.119Z,-0.10
2018-02-22T09:44:05.752Z,-0.10
2018-02-22T09:46:33.412Z,0.30
2018-02-22T09:49:00.996Z,0.50
2018-02-22T09:51:28.640Z,0.30
2018-02-22T09:53:56.248Z,0.70
2018-02-22T09:56:23.843Z,0.60
2018-02-22T09:58:52.208Z,1.20
2018-02-22T10:01:19.834Z,1.10
2018-02-22T10:03:47.469Z,0.70
2018-02-22T10:06:16.013Z,1.40
2018-02-22T10:08:43.624Z,1.50
2018-02-22T10:11:11.264Z,1.70
2018-02-22T10:13:38.908Z,1.90
2018-02-22T10:16:06.502Z,1.90
2018-02-22T10:18:34.177Z,1.90
2018-02-22T10:21:01.852Z,1.90
2018-02-22T10:23:29.517Z,1.60
2018-02-22T10:25:57.180Z,1.80
2018-02-22T10:28:24.800Z,1.90
2018-02-22T10:30:52.408Z,2.60
2018-02-22T10:33:20.805Z,3.80
2018-02-22T10:35:49.232Z,3.20
2018-02-22T10:38:16.868Z,3.20
2018-02-22T10:40:45.225Z,2.50
2018-02-22T10:43:12.877Z,2.50
2018-02-22T10:45:40.565Z,2.10
2018-02-22T10:48:08.181Z,2.20
2018-02-22T10:50:35.771Z,2.50
2018-02-22T10:53:03.407Z,2.70
2018-02-22T10:55:31.034Z,3.10
2018-02-22T10:57:58.734Z,3.00
2018-02-22T11:00:32.004Z,3.30
2018-02-22T11:02:59.644Z,2.90
2018-02-22T11:05:27.996Z,3.20
2018-02-22T11:07:55.661Z,3.20
2018-02-22T11:10:23.425Z,3.40
2018-02-22T11:12:51.020Z,3.20
2018-02-22T11:15:18.669Z,3.60
2018-02-22T11:17:46.332Z,4.50
2018-02-22T11:20:13.991Z,3.60
2018-02-22T11:22:45.729Z,4.70
2018-02-22T11:25:13.345Z,4.70
2018-02-22T11:27:40.971Z,4.40
2018-02-22T11:30:08.585Z,5.30
2018-02-22T11:32:36.930Z,3.60
2018-02-22T11:35:04.545Z,3.60
2018-02-22T11:37:32.109Z,3.50
2018-02-22T11:40:00.501Z,2.80
2018-02-22T11:42:28.895Z,2.40
2018-02-22T11:44:57.279Z,2.30
2018-02-22T11:47:25.640Z,2.20
2018-02-22T11:49:53.270Z,2.20
2018-02-22T11:52:20.919Z,1.80
2018-02-22T11:54:49.317Z,3.10
2018-02-22T11:57:16.959Z,3.10
2018-02-22T11:59:45.514Z,2.90
2018-02-22T12:02:13.148Z,2.90
2018-02-22T12:04:41.561Z,3.50
2018-02-22T12:07:09.173Z,3.50
2018-02-22T12:09:36.926Z,5.30
2018-02-22T12:12:04.544Z,5.00
2018-02-22T12:14:32.152Z,5.70
2018-02-22T12:17:00.509Z,5.70
2018-02-22T12:19:28.901Z,4.60
2018-02-22T12:21:56.522Z,4.60
2018-02-22T12:24:24.147Z,5.80
2018-02-22T12:26:51.761Z,5.60
2018-02-22T12:29:19.383Z,4.00
2018-02-22T12:31:47.008Z,2.80
2018-02-22T12:34:14.701Z,2.80
2018-02-22T12:36:42.333Z,3.50
2018-02-22T12:39:10.744Z,6.00
2018-02-22T12:41:38.391Z,5.90
2018-02-22T12:44:06.786Z,4.70
2018-02-22T12:46:35.319Z,5.70
2018-02-22T12:49:02.944Z,5.70
2018-02-22T12:51:30.596Z,6.20
2018-02-22T12:53:58.202Z,6.20
2018-02-22T12:56:26.584Z,6.20
2018-02-22T12:58:54.169Z,6.10
2018-02-22T13:01:23.128Z,4.10
2018-02-22T13:03:50.756Z,4.10
2018-02-22T13:06:18.417Z,3.90
2018-02-22T13:08:46.009Z,3.60
2018-02-22T13:11:13.661Z,3.60
2018-02-22T13:13:41.352Z,3.60
2018-02-22T13:16:09.046Z,3.70
2018-02-22T13:18:38.312Z,4.10
2018-02-22T13:21:06.735Z,4.40
2018-02-22T13:23:34.313Z,4.40
2018-02-22T13:26:01.951Z,4.20
2018-02-22T13:28:30.306Z,3.50
2018-02-22T13:30:57.997Z,3.50
2018-02-22T13:33:38.032Z,4.00
2018-02-22T13:36:05.693Z,3.20
2018-02-22T13:38:45.300Z,3.40
2018-02-22T13:41:12.931Z,3.10
2018-02-22T13:43:40.589Z,3.50
2018-02-22T13:46:08.233Z,3.30
2018-02-22T13:48:52.024Z,4.00
2018-02-22T13:51:19.725Z,4.00
2018-02-22T13:53:47.369Z,3.60
2018-02-22T13:56:26.737Z,3.70
2018-02-22T13:58:54.342Z,4.00
2018-02-22T14:04:29.142Z,3.10
2018-02-22T14:06:57.472Z,3.30
2018-02-22T14:09:25.032Z,3.20
2018-02-22T14:11:52.634Z,3.50
2018-02-22T14:14:20.207Z,3.40
2018-02-22T14:16:47.772Z,4.10
2018-02-22T14:19:15.319Z,2.90
2018-02-22T14:21:43.009Z,2.80
2018-02-22T14:24:10.560Z,2.70
2018-02-22T14:26:38.174Z,2.60
2018-02-22T14:29:05.735Z,2.40
2018-02-22T14:31:33.276Z,2.50
2018-02-22T14:34:00.864Z,1.70
2018-02-22T14:36:28.412Z,1.80
2018-02-22T14:38:56.853Z,1.50
2018-02-22T14:41:24.364Z,1.50
2018-02-22T14:43:52.688Z,1.30
2018-02-22T14:46:20.259Z,1.30
2018-02-22T14:48:53.675Z,1.30
2018-02-22T14:51:21.220Z,1.20
2018-02-22T14:53:48.803Z,1.40
2018-02-22T14:56:16.343Z,1.40
2018-02-22T14:58:44.680Z,1.20
2018-02-22T15:01:12.231Z,1.20
2018-02-22T15:03:39.978Z,1.10
2018-02-22T15:06:08.284Z,0.80
2018-02-22T15:08:36.633Z,0.90
2018-02-22T15:11:04.266Z,0.90
2018-02-22T15:13:41.918Z,1.00
2018-02-22T15:16:09.552Z,1.10
2018-02-22T15:18:37.196Z,0.90
2018-02-22T15:21:05.577Z,1.00
2018-02-22T15:23:33.980Z,0.90
2018-02-22T15:26:02.449Z,0.60
2018-02-22T15:28:30.111Z,0.60
2018-02-22T15:30:57.721Z,0.40
2018-02-22T15:33:25.361Z,0.30
2018-02-22T15:35:54.140Z,0.20
2018-02-22T15:38:24.039Z,0.20
2018-02-22T15:40:53.053Z,0.00
2018-02-22T15:43:21.226Z,0.00
2018-02-22T15:45:49.205Z,0.00
2018-02-22T15:48:17.552Z,0.20
2018-02-22T15:50:47.745Z,0.10
2018-02-22T15:53:15.459Z,0.10
2018-02-22T15:55:43.129Z,0.10
2018-02-22T15:58:10.985Z,0.00
2018-02-22T16:00:38.983Z,0.00
2018-02-22T16:03:08.405Z,-0.40
2018-02-22T16:05:37.116Z,-0.50
2018-02-22T16:08:05.425Z,-0.60
2018-02-22T16:10:33.069Z,-0.70
2018-02-22T16:13:00.718Z,-0.70
2018-02-22T16:15:28.347Z,-0.80
2018-02-22T16:17:56.729Z,-0.70
2018-02-22T16:20:25.159Z,-0.70
2018-02-22T16:22:52.840Z,-0.70
2018-02-22T16:25:20.625Z,-0.70
2018-02-22T16:27:48.245Z,-0.80
2018-02-22T16:30:15.974Z,-0.80
2018-02-22T16:32:44.052Z,-0.90
2018-02-22T16:35:11.739Z,-1.00
2018-02-22T16:37:39.377Z,-1.00
2018-02-22T16:40:07.018Z,-1.10
2018-02-22T16:42:34.668Z,-1.10
2018-02-22T16:45:02.335Z,-1.20
2018-02-22T16:47:29.975Z,-1.10
2018-02-22T16:49:57.604Z,-1.10
2018-02-22T16:52:25.467Z,-1.20
2018-02-22T16:54:53.121Z,-1.30
2018-02-22T16:57:20.796Z,-1.40
2018-02-22T16:59:48.435Z,-1.30
2018-02-22T17:02:16.864Z,-1.40
2018-02-22T17:04:44.533Z,-1.40
2018-02-22T17:07:12.217Z,-1.40
2018-02-22T17:09:39.873Z,-1.50
2018-02-22T17:12:07.661Z,-1.50
2018-02-22T17:14:35.285Z,-1.50
2018-02-22T17:17:03.169Z,-1.40
2018-02-22T17:19:31.569Z,-1.60
2018-02-22T17:21:59.969Z,-1.70
2018-02-22T17:24:27.762Z,-1.70
2018-02-22T17:27:01.309Z,-1.60
2018-02-22T17:29:34.704Z,-1.60
2018-02-22T17:32:08.111Z,-1.60
2018-02-22T17:34:35.722Z,-1.60
2018-02-22T17:37:03.462Z,-1.60
2018-02-22T17:39:43.937Z,-1.60
2018-02-22T17:42:11.769Z,-1.70
2018-02-22T17:44:40.414Z,-1.70
2018-02-22T17:47:08.017Z,-1.80
2018-02-22T17:49:35.652Z,-1.80
2018-02-22T17:52:03.320Z,-1.80
2018-02-22T17:54:30.953Z,-1.80
2018-02-22T17:56:58.591Z,-1.80
2018-02-22T17:59:26.220Z,-1.80
2018-02-22T18:01:54.635Z,-1.80
2018-02-22T18:04:22.280Z,-1.90
2018-02-22T18:06:50.748Z,-2.00
2018-02-22T18:09:18.356Z,-2.00
2018-02-22T18:11:45.999Z,-2.00
2018-02-22T18:14:14.469Z,-2.10
2018-02-22T18:16:42.134Z,-2.10
2018-02-22T18:19:09.824Z,-2.10
2018-02-22T18:21:37.508Z,-2.10
2018-02-22T18:24:05.912Z,-2.00
2018-02-22T18:26:33.743Z,-2.00
2018-02-22T18:29:01.396Z,-2.00
2018-02-22T18:31:29.135Z,-2.00
2018-02-22T18:33:56.833Z,-2.00
2018-02-22T18:36:24.713Z,-2.00
2018-02-22T18:38:58.207Z,-2.00
2018-02-22T18:41:25.834Z,-2.00
2018-02-22T18:43:59.322Z,-2.00
2018-02-22T18:46:27.706Z,-1.90
2018-02-22T18:48:56.101Z,-2.00
2018-02-22T18:51:24.497Z,-2.00
2018-02-22T18:53:52.129Z,-2.00
2018-02-22T18:56:19.843Z,-2.00
2018-02-22T18:58:47.481Z,-1.90
2018-02-22T19:01:15.937Z,-1.90
2018-02-22T19:03:43.708Z,-1.90
2018-02-22T19:06:11.526Z,-1.90
2018-02-22T19:08:39.987Z,-1.90
2018-02-22T19:11:07.745Z,-2.00
2018-02-22T19:13:35.399Z,-2.00
2018-02-22T19:16:03.826Z,-1.90
2018-02-22T19:18:31.664Z,-2.00
2018-02-22T19:20:59.349Z,-2.00
2018-02-22T19:23:27.032Z,-2.00
2018-02-22T19:25:54.741Z,-2.00
2018-02-22T19:28:22.365Z,-2.10
2018-02-22T19:30:51.326Z,-2.10
2018-02-22T19:33:19.619Z,-2.10
2018-02-22T19:35:52.495Z,-2.00
2018-02-22T19:38:20.161Z,-2.00
2018-02-22T19:40:47.786Z,-2.00
2018-02-22T19:43:16.428Z,-2.00
2018-02-22T19:45:44.143Z,-1.90
2018-02-22T19:48:11.765Z,-1.90
2018-02-22T19:50:39.429Z,-1.90
2018-02-22T19:53:07.093Z,-2.00
2018-02-22T19:55:35.496Z,-2.00
2018-02-22T19:58:03.222Z,-2.00
2018-02-22T20:00:30.870Z,-1.90
2018-02-22T20:02:58.577Z,-2.00
2018-02-22T20:05:26.246Z,-2.00
2018-02-22T20:07:53.933Z,-2.00
2018-02-22T20:10:21.536Z,-1.90
2018-02-22T20:12:49.900Z,-2.00
2018-02-22T20:15:17.501Z,-2.00
2018-02-22T20:17:45.909Z,-2.10
2018-02-22T20:20:13.597Z,-2.10
2018-02-22T20:22:41.270Z,-2.10
2018-02-22T20:25:09.786Z,-2.00
2018-02-22T20:27:37.420Z,-2.10
2018-02-22T20:30:05.050Z,-2.00
2018-02-22T20:32:32.678Z,-2.00
2018-02-22T20:35:00.377Z,-2.10
2018-02-22T20:37:28.187Z,-2.10
2018-02-22T20:39:55.905Z,-2.10
2018-02-22T20:42:23.543Z,-2.10
2018-02-22T20:44:51.952Z,-2.10
2018-02-22T20:47:19.572Z,-2.10
2018-02-22T20:49:47.213Z,-2.10
2018-02-22T20:52:15.309Z,-2.10
2018-02-22T20:54:42.909Z,-2.10
2018-02-22T20:57:10.545Z,-2.10
2018-02-22T20:59:38.329Z,-2.10
2018-02-22T21:02:05.976Z,-2.10
2018-02-22T21:04:33.597Z,-2.20
2018-02-22T21:07:01.356Z,-2.20
2018-02-22T21:09:28.984Z,-2.20
2018-02-22T21:11:57.445Z,-2.20
2018-02-22T21:14:25.076Z,-2.30
2018-02-22T21:16:52.703Z,-2.20
2018-02-22T21:19:20.394Z,-2.30
2018-02-22T21:21:48.021Z,-2.30
2018-02-22T21:24:15.677Z,-2.30
2018-02-22T21:26:43.288Z,-2.30
2018-02-22T21:29:14.853Z,-2.30
2018-02-22T21:31:42.728Z,-2.30
2018-02-22T21:34:10.389Z,-2.20
2018-02-22T21:36:38.009Z,-2.20
2018-02-22T21:39:06.441Z,-2.20
2018-02-22T21:41:34.064Z,-2.20
2018-02-22T21:44:01.661Z,-2.20
2018-02-22T21:46:30.286Z,-2.30
2018-02-22T21:48:58.169Z,-2.30
2018-02-22T21:51:25.880Z,-2.30
2018-02-22T21:53:53.640Z,-2.30
2018-02-22T21:56:21.468Z,-2.20
2018-02-22T21:58:49.101Z,-2.20
2018-02-22T22:01:16.852Z,-2.30
2018-02-22T22:03:44.452Z,-2.30
2018-02-22T22:06:12.832Z,-2.30
2018-02-22T22:08:40.492Z,-2.40
2018-02-22T22:11:08.262Z,-2.40
2018-02-22T22:13:35.880Z,-2.40
2018-02-22T22:16:03.516Z,-2.40
2018-02-22T22:18:31.113Z,-2.30
2018-02-22T22:20:58.784Z,-2.30
2018-02-22T22:23:26.425Z,-2.30
2018-02-22T22:25:54.173Z,-2.20
2018-02-22T22:28:22.561Z,-2.20
2018-02-22T22:30:51.293Z,-2.20
2018-02-22T22:33:18.917Z,-2.20
2018-02-22T22:35:46.514Z,-2.20
2018-02-22T22:38:14.145Z,-2.30
2018-02-22T22:40:41.732Z,-2.30
2018-02-22T22:43:10.131Z,-2.30
2018-02-22T22:45:38.533Z,-2.40
2018-02-22T22:48:06.920Z,-2.50
2018-02-22T22:50:35.347Z,-2.50
2018-02-22T22:53:02.958Z,-2.50
2018-02-22T22:55:30.578Z,-2.50
2018-02-22T22:57:58.224Z,-2.60
2018-02-22T23:00:26.666Z,-2.50
2018-02-22T23:02:54.344Z,-2.60
2018-02-22T23:05:21.952Z,-2.50
2018-02-22T23:07:49.589Z,-2.60
2018-02-22T23:10:17.269Z,-2.60
2018-02-22T23:12:44.956Z,-2.50
2018-02-22T23:15:12.556Z,-2.60
2018-02-22T23:17:40.225Z,-2.60
2018-02-22T23:20:07.889Z,-2.60
2018-02-22T23:22:35.565Z,-2.60
2018-02-22T23:25:03.205Z,-2.60
2018-02-22T23:27:30.841Z,-2.60
2018-02-22T23:29:59.212Z,-2.60
2018-02-22T23:32:26.865Z,-2.60
2018-02-22T23:34:54.483Z,-2.50
2018-02-22T23:37:22.866Z,-2.60
2018-02-22T23:39:51.335Z,-2.60
2018-02-22T23:42:19.519Z,-2.60
2018-02-22T23:44:47.149Z,-2.60
2018-02-22T23:47:14.768Z,-2.60
2018-02-22T23:49:43.167Z,-2.60
2018-02-22T23:52:10.791Z,-2.60
2018-02-22T23:54:38.464Z,-2.70
2018-02-22T23:57:06.124Z,-2.70
2018-02-22T23:59:33.760Z,-2.70
